LiveATC.Net - Listen to live air traffic control over the Internet! Contact for advertising information

ICAO: KVGT  IATA: VGT   Airport: North Las Vegas Airport
City: Las Vegas   State/Province: Nevada
Country: United States   Continent: North America
KVGT METAR Weather: KVGT 070353Z 32003KT 10SM CLR 21/10 A3005 RMK AO2 SLP181 T02110100
KVGT Flight Activity (FlightAware)
KVGT Airport Info   (AirNav) (iFlightPlanner)
KVGT VFR Sectional Chart   (iFlightPlanner) 
KVGT IFR Low Chart   (iFlightPlanner) 
KVGT Tower
Feed Status: DOWN
Last heard on: 2015-10-01 16:51:03 (5 days 11 hours 20 minutes ago)
KVGT Tower Audio Archives
North Las Vegas Tower125.700


Unauthorized use prohibited. See Terms of Service

Find LiveATC Audio Streams

Airport/ARTCC Code

(e.g., 124.400, 128.75)
Site-wide search

Browse LiveATC Feeds
LiveATC Coverage Map
Top 50 LiveATC Feeds
Bad Weather Areas

Offer a LiveATC Feed
Press Inquiries

LiveATC on iPhone
LiveATC on Android

LiveATC Mobile
(Mobile browser)

ATC Audio Archives
Interesting Recordings

LiveATC Forums

Home Page
Make a Donation
LiveATC Bookstore

Terms of Use
Privacy Policy

ATC/Radar Sites
U.S. ARTCC Freqs
Canadian Air Freqs


FAA Airport Status
Nat'l Airspace Status
Arrival Demand Charts

Server Software By:

Please make a donation to help us keep growing!